createdAt,value
2018-04-19T00:00:27.803Z,0.00
2018-04-19T00:01:33.323Z,0.00
2018-04-19T00:02:38.838Z,0.00
2018-04-19T00:03:44.352Z,0.00
2018-04-19T00:04:49.862Z,0.00
2018-04-19T00:05:55.378Z,0.00
2018-04-19T00:07:00.894Z,0.00
2018-04-19T00:08:06.409Z,0.00
2018-04-19T00:09:11.929Z,0.00
2018-04-19T00:10:17.440Z,0.00
2018-04-19T00:11:22.950Z,0.00
2018-04-19T00:12:28.461Z,0.00
2018-04-19T00:13:33.976Z,0.00
2018-04-19T00:14:39.493Z,0.00
2018-04-19T00:15:45.007Z,0.00
2018-04-19T00:16:50.521Z,0.00
2018-04-19T00:17:56.036Z,0.00
2018-04-19T00:19:01.554Z,0.00
2018-04-19T00:20:07.067Z,0.00
2018-04-19T00:21:12.586Z,0.00
2018-04-19T00:22:18.102Z,0.00
2018-04-19T00:23:23.609Z,0.00
2018-04-19T00:24:29.122Z,0.00
2018-04-19T00:25:34.644Z,0.00
2018-04-19T00:26:40.157Z,0.00
2018-04-19T00:27:45.791Z,0.00
2018-04-19T00:28:51.185Z,0.00
2018-04-19T00:29:56.699Z,0.00
2018-04-19T00:31:02.231Z,0.00
2018-04-19T00:32:07.728Z,0.00
2018-04-19T00:33:13.244Z,0.00
2018-04-19T00:34:18.756Z,0.00
2018-04-19T00:35:24.274Z,0.00
2018-04-19T00:36:29.788Z,0.00
2018-04-19T00:37:35.302Z,0.00
2018-04-19T00:38:40.813Z,0.00
2018-04-19T00:39:46.339Z,0.00
2018-04-19T00:40:51.851Z,0.00
2018-04-19T00:41:57.361Z,0.00
2018-04-19T00:43:02.872Z,0.00
2018-04-19T00:44:08.390Z,0.00
2018-04-19T00:45:13.906Z,0.00
2018-04-19T00:46:19.425Z,0.00
2018-04-19T00:47:24.934Z,0.00
2018-04-19T00:48:30.452Z,0.00
2018-04-19T00:49:35.963Z,0.00
2018-04-19T00:50:41.479Z,0.00
2018-04-19T00:51:46.996Z,0.00
2018-04-19T00:52:52.504Z,0.00
2018-04-19T00:53:58.028Z,0.00
2018-04-19T00:55:03.540Z,0.00
2018-04-19T00:56:09.055Z,0.00
2018-04-19T00:57:14.564Z,0.00
2018-04-19T00:58:20.101Z,0.00
2018-04-19T00:59:25.595Z,0.00
2018-04-19T01:00:31.114Z,0.00
2018-04-19T01:01:36.622Z,0.00
2018-04-19T01:02:42.145Z,0.00
2018-04-19T01:03:47.652Z,0.00
2018-04-19T01:04:53.169Z,0.00
2018-04-19T01:05:58.679Z,0.00
2018-04-19T01:07:04.195Z,0.00
2018-04-19T01:08:09.709Z,0.00
2018-04-19T01:09:15.226Z,0.00
2018-04-19T01:10:20.793Z,0.00
2018-04-19T01:11:26.257Z,0.00
2018-04-19T01:12:31.769Z,0.00
2018-04-19T01:13:37.288Z,0.00
2018-04-19T01:14:42.796Z,0.00
2018-04-19T01:15:48.312Z,0.00
2018-04-19T01:16:53.826Z,0.00
2018-04-19T01:17:59.347Z,0.00
2018-04-19T01:19:04.857Z,0.00
2018-04-19T01:20:10.375Z,0.00
2018-04-19T01:21:15.890Z,0.00
2018-04-19T01:22:21.399Z,0.00
2018-04-19T01:23:26.924Z,0.00
2018-04-19T01:24:32.430Z,0.00
2018-04-19T01:25:37.938Z,0.00
2018-04-19T01:26:43.458Z,0.00
2018-04-19T01:27:48.968Z,0.00
2018-04-19T01:28:54.487Z,0.00
2018-04-19T01:29:59.998Z,0.00
2018-04-19T01:31:05.520Z,0.00
2018-04-19T01:32:11.024Z,0.00
2018-04-19T01:33:16.650Z,0.00
2018-04-19T01:34:22.060Z,0.00
2018-04-19T01:35:27.577Z,0.00
2018-04-19T01:36:33.094Z,0.00
2018-04-19T01:37:38.598Z,0.00
2018-04-19T01:38:44.113Z,0.00
2018-04-19T01:39:49.626Z,0.00
2018-04-19T01:40:55.138Z,0.00
2018-04-19T01:42:00.652Z,0.00
2018-04-19T01:43:06.180Z,0.00
2018-04-19T01:44:11.693Z,0.00
2018-04-19T01:45:17.198Z,0.00
2018-04-19T01:46:22.714Z,0.00
2018-04-19T01:47:28.229Z,0.00
2018-04-19T01:48:33.744Z,0.00
2018-04-19T01:49:39.267Z,0.00
2018-04-19T01:50:44.771Z,0.00
2018-04-19T01:51:50.285Z,0.00
2018-04-19T01:52:55.798Z,0.00
2018-04-19T01:54:01.313Z,0.00
2018-04-19T01:55:06.827Z,0.00
2018-04-19T01:56:12.344Z,0.00
2018-04-19T01:57:17.854Z,0.00
2018-04-19T01:58:23.375Z,0.00
2018-04-19T01:59:28.885Z,0.00
2018-04-19T02:00:34.402Z,0.00
2018-04-19T02:01:39.921Z,0.00
2018-04-19T02:02:45.431Z,0.00
2018-04-19T02:03:51.052Z,0.00
2018-04-19T02:04:56.456Z,0.00
2018-04-19T02:06:01.979Z,0.00
2018-04-19T02:07:07.488Z,0.00
2018-04-19T02:08:13.003Z,0.00
2018-04-19T02:09:18.521Z,0.00
2018-04-19T02:10:24.029Z,0.00
2018-04-19T02:11:29.540Z,0.00
2018-04-19T02:12:35.059Z,0.00
2018-04-19T02:13:40.574Z,0.00
2018-04-19T02:14:46.085Z,0.00
2018-04-19T02:15:51.599Z,0.00
2018-04-19T02:16:57.118Z,0.00
2018-04-19T02:18:02.629Z,0.00
2018-04-19T02:19:08.180Z,0.00
2018-04-19T02:20:13.656Z,0.00
2018-04-19T02:21:19.168Z,0.00
2018-04-19T02:22:24.683Z,0.00
2018-04-19T02:23:30.196Z,0.00
2018-04-19T02:24:35.709Z,0.00
2018-04-19T02:25:41.222Z,0.00
2018-04-19T02:26:46.740Z,0.00
2018-04-19T02:27:52.254Z,0.00
2018-04-19T02:28:57.765Z,0.00
2018-04-19T02:30:03.278Z,0.00
2018-04-19T02:31:08.803Z,0.00
2018-04-19T02:32:14.308Z,0.00
2018-04-19T02:33:19.825Z,0.00
2018-04-19T02:34:25.338Z,0.00
2018-04-19T02:35:30.864Z,0.00
2018-04-19T02:36:36.361Z,0.00
2018-04-19T02:37:41.879Z,0.00
2018-04-19T02:38:47.391Z,0.00
2018-04-19T02:39:52.903Z,0.00
2018-04-19T02:40:58.421Z,0.00
2018-04-19T02:42:03.947Z,0.00
2018-04-19T02:43:09.453Z,0.00
2018-04-19T02:44:14.964Z,0.00
2018-04-19T02:45:20.477Z,0.00
2018-04-19T02:46:25.986Z,0.00
2018-04-19T02:47:31.499Z,0.00
2018-04-19T02:48:37.012Z,0.00
2018-04-19T02:49:42.531Z,0.00
2018-04-19T02:50:48.050Z,0.00
2018-04-19T02:51:53.556Z,0.00
2018-04-19T02:52:59.074Z,0.00
2018-04-19T02:54:04.584Z,0.00
2018-04-19T02:55:10.095Z,0.00
2018-04-19T02:56:15.615Z,0.00
2018-04-19T02:57:21.132Z,0.00
2018-04-19T02:58:26.640Z,0.00
2018-04-19T02:59:32.151Z,0.00
2018-04-19T03:00:37.670Z,0.00
2018-04-19T03:01:43.187Z,0.00
2018-04-19T03:02:48.708Z,0.00
2018-04-19T03:03:54.211Z,0.00
2018-04-19T03:04:59.719Z,0.00
2018-04-19T03:06:05.239Z,0.00
2018-04-19T03:07:10.747Z,0.00
2018-04-19T03:08:16.265Z,0.00
2018-04-19T03:09:21.783Z,0.00
2018-04-19T03:10:27.292Z,0.00
2018-04-19T03:11:32.808Z,0.00
2018-04-19T03:12:38.317Z,0.00
2018-04-19T03:13:43.836Z,0.00
2018-04-19T03:14:49.349Z,0.00
2018-04-19T03:15:54.858Z,0.00
2018-04-19T03:17:00.373Z,0.00
2018-04-19T03:18:05.886Z,0.00
2018-04-19T03:19:11.408Z,0.00
2018-04-19T03:20:16.918Z,0.00
2018-04-19T03:21:22.429Z,0.00
2018-04-19T03:22:27.943Z,0.00
2018-04-19T03:23:33.456Z,0.00
2018-04-19T03:24:38.966Z,0.00
2018-04-19T03:25:44.480Z,0.00
2018-04-19T03:26:49.998Z,0.00
2018-04-19T03:27:55.507Z,0.00
2018-04-19T03:29:01.081Z,0.00
2018-04-19T03:30:06.548Z,0.00
2018-04-19T03:31:12.059Z,0.00
2018-04-19T03:32:17.569Z,0.00
2018-04-19T03:33:23.078Z,0.00
2018-04-19T03:34:28.590Z,0.00
2018-04-19T03:35:34.102Z,0.00
2018-04-19T03:36:39.618Z,0.00
2018-04-19T03:37:45.128Z,0.00
2018-04-19T03:38:50.649Z,0.00
2018-04-19T03:39:56.155Z,0.00
2018-04-19T03:41:01.671Z,0.00
2018-04-19T03:42:07.184Z,0.00
2018-04-19T03:43:12.698Z,0.00
2018-04-19T03:44:18.247Z,0.00
2018-04-19T03:45:23.727Z,0.00
2018-04-19T03:46:29.237Z,0.00
2018-04-19T03:47:34.748Z,0.00
2018-04-19T03:48:40.279Z,0.00
2018-04-19T03:49:45.779Z,0.00
2018-04-19T03:50:51.292Z,0.00
2018-04-19T03:51:56.806Z,0.00
2018-04-19T03:53:02.315Z,0.00
2018-04-19T03:54:07.829Z,0.00
2018-04-19T03:55:13.347Z,0.00
2018-04-19T03:56:18.855Z,0.00
2018-04-19T03:57:24.368Z,0.00
2018-04-19T03:58:29.880Z,0.00
2018-04-19T03:59:35.400Z,0.00
2018-04-19T04:00:40.909Z,0.00
2018-04-19T04:01:46.425Z,0.00
2018-04-19T04:02:51.945Z,0.00
2018-04-19T04:03:57.448Z,0.00
2018-04-19T04:05:02.958Z,0.00
2018-04-19T04:06:08.475Z,0.00
2018-04-19T04:07:13.986Z,0.00
2018-04-19T04:08:19.502Z,0.00
2018-04-19T04:09:25.015Z,0.00
2018-04-19T04:10:30.529Z,0.00
2018-04-19T04:11:36.049Z,0.00
2018-04-19T04:12:41.557Z,0.00
2018-04-19T04:13:47.078Z,0.00
2018-04-19T04:14:52.579Z,0.00
2018-04-19T04:15:58.091Z,0.00
2018-04-19T04:17:03.606Z,0.00
2018-04-19T04:18:09.130Z,0.00
2018-04-19T04:19:14.633Z,0.00
2018-04-19T04:20:20.149Z,0.00
2018-04-19T04:21:25.661Z,0.00
2018-04-19T04:22:31.175Z,0.00
2018-04-19T04:23:36.691Z,0.00
2018-04-19T04:24:42.199Z,0.00
2018-04-19T04:25:47.720Z,0.00
2018-04-19T04:26:53.232Z,0.00
2018-04-19T04:27:58.737Z,0.00
2018-04-19T04:29:04.250Z,0.00
2018-04-19T04:30:09.773Z,0.00
2018-04-19T04:31:15.313Z,0.00
2018-04-19T04:32:20.787Z,0.00
2018-04-19T04:33:26.306Z,0.00
2018-04-19T04:34:31.827Z,0.00
2018-04-19T04:35:37.328Z,0.00
2018-04-19T04:36:42.841Z,0.00
2018-04-19T04:37:48.358Z,0.00
2018-04-19T04:38:53.868Z,0.00
2018-04-19T04:39:59.383Z,0.00
2018-04-19T04:41:04.908Z,0.00
2018-04-19T04:42:10.408Z,0.00
2018-04-19T04:43:15.921Z,5.63
2018-04-19T04:44:21.433Z,5.63
2018-04-19T04:45:26.951Z,5.63
2018-04-19T04:46:32.462Z,5.63
2018-04-19T04:47:37.977Z,5.63
2018-04-19T04:48:43.487Z,5.63
2018-04-19T04:49:48.997Z,5.63
2018-04-19T04:50:54.517Z,5.63
2018-04-19T04:52:00.031Z,5.63
2018-04-19T04:53:05.708Z,5.63
2018-04-19T04:54:11.051Z,5.63
2018-04-19T04:55:16.611Z,5.63
2018-04-19T04:56:22.080Z,5.63
2018-04-19T04:57:27.594Z,5.63
2018-04-19T04:58:33.105Z,5.63
2018-04-19T04:59:38.622Z,5.63
2018-04-19T05:00:44.134Z,11.25
2018-04-19T05:01:49.639Z,11.25
2018-04-19T05:02:55.167Z,11.25
2018-04-19T05:04:00.667Z,11.25
2018-04-19T05:05:06.191Z,11.25
2018-04-19T05:06:11.691Z,11.25
2018-04-19T05:07:17.205Z,11.25
2018-04-19T05:08:22.723Z,11.25
2018-04-19T05:09:28.237Z,11.25
2018-04-19T05:10:33.753Z,11.25
2018-04-19T05:11:39.260Z,5.63
2018-04-19T05:12:44.772Z,11.25
2018-04-19T05:13:50.286Z,11.25
2018-04-19T05:14:55.797Z,11.25
2018-04-19T05:16:01.331Z,11.25
2018-04-19T05:17:06.826Z,11.25
2018-04-19T05:18:12.338Z,11.25
2018-04-19T05:19:17.855Z,11.25
2018-04-19T05:20:23.420Z,11.25
2018-04-19T05:21:28.881Z,11.25
2018-04-19T05:22:34.389Z,11.25
2018-04-19T05:23:39.907Z,11.25
2018-04-19T05:24:45.417Z,11.25
2018-04-19T05:25:50.932Z,11.25
2018-04-19T05:26:56.449Z,11.25
2018-04-19T05:28:02.059Z,11.25
2018-04-19T05:29:07.472Z,11.25
2018-04-19T05:30:12.988Z,11.25
2018-04-19T05:31:18.497Z,11.25
2018-04-19T05:32:24.012Z,11.25
2018-04-19T05:33:29.524Z,11.25
2018-04-19T05:34:35.039Z,11.25
2018-04-19T05:35:40.552Z,16.88
2018-04-19T05:36:46.075Z,16.88
2018-04-19T05:37:51.584Z,16.88
2018-04-19T05:38:57.089Z,16.88
2018-04-19T05:40:02.607Z,16.88
2018-04-19T05:41:08.119Z,16.88
2018-04-19T05:42:13.628Z,16.88
2018-04-19T05:43:19.152Z,16.88
2018-04-19T05:44:24.663Z,16.88
2018-04-19T05:45:30.171Z,16.88
2018-04-19T05:46:35.687Z,16.88
2018-04-19T05:47:41.200Z,16.88
2018-04-19T05:48:46.714Z,16.88
2018-04-19T05:49:52.238Z,16.88
2018-04-19T05:50:57.739Z,16.88
2018-04-19T05:52:03.257Z,16.88
2018-04-19T05:53:08.770Z,16.88
2018-04-19T05:54:14.289Z,16.88
2018-04-19T05:55:19.794Z,16.88
2018-04-19T05:56:25.308Z,16.88
2018-04-19T05:57:30.821Z,16.88
2018-04-19T05:58:36.337Z,16.88
2018-04-19T05:59:41.849Z,16.88
2018-04-19T06:00:47.368Z,16.88
2018-04-19T06:01:52.880Z,16.88
2018-04-19T06:02:58.396Z,16.88
2018-04-19T06:04:03.979Z,16.88
2018-04-19T06:05:09.421Z,16.88
2018-04-19T06:06:14.932Z,16.88
2018-04-19T06:07:20.464Z,16.88
2018-04-19T06:08:25.958Z,16.88
2018-04-19T06:09:31.476Z,16.88
2018-04-19T06:10:37.000Z,16.88
2018-04-19T06:11:42.504Z,16.88
2018-04-19T06:12:48.021Z,16.88
2018-04-19T06:13:53.538Z,16.88
2018-04-19T06:14:59.049Z,22.50
2018-04-19T06:16:04.557Z,22.50
2018-04-19T06:17:10.073Z,22.50
2018-04-19T06:18:15.589Z,22.50
2018-04-19T06:19:21.103Z,22.50
2018-04-19T06:20:26.617Z,22.50
2018-04-19T06:21:32.135Z,22.50
2018-04-19T06:22:37.648Z,22.50
2018-04-19T06:23:43.162Z,22.50
2018-04-19T06:24:48.672Z,22.50
2018-04-19T06:25:54.188Z,22.50
2018-04-19T06:26:59.710Z,22.50
2018-04-19T06:28:05.217Z,22.50
2018-04-19T06:29:10.731Z,22.50
2018-04-19T06:30:16.251Z,22.50
2018-04-19T06:31:21.770Z,22.50
2018-04-19T06:32:27.287Z,22.50
2018-04-19T06:33:32.812Z,22.50
2018-04-19T06:34:38.318Z,22.50
2018-04-19T06:35:43.853Z,22.50
2018-04-19T06:36:49.340Z,22.50
2018-04-19T06:37:54.853Z,22.50
2018-04-19T06:39:00.363Z,22.50
2018-04-19T06:40:05.883Z,22.50
2018-04-19T06:41:11.402Z,22.50
2018-04-19T06:42:16.911Z,22.50
2018-04-19T06:43:22.435Z,22.50
2018-04-19T06:44:27.938Z,16.88
2018-04-19T06:45:33.455Z,22.50
2018-04-19T06:46:38.968Z,22.50
2018-04-19T06:47:44.491Z,22.50
2018-04-19T06:48:50.000Z,22.50
2018-04-19T06:49:55.513Z,22.50
2018-04-19T06:51:01.036Z,22.50
2018-04-19T06:52:06.554Z,22.50
2018-04-19T06:53:12.062Z,22.50
2018-04-19T06:54:17.577Z,22.50
2018-04-19T06:55:23.093Z,22.50
2018-04-19T06:56:28.608Z,22.50
2018-04-19T06:57:34.122Z,22.50
2018-04-19T06:58:39.639Z,22.50
2018-04-19T06:59:45.333Z,22.50
2018-04-19T07:00:50.666Z,22.50
2018-04-19T07:01:56.189Z,22.50
2018-04-19T07:03:01.710Z,22.50
2018-04-19T07:04:07.223Z,22.50
2018-04-19T07:05:12.744Z,22.50
2018-04-19T07:06:18.397Z,22.50
2018-04-19T07:07:23.771Z,22.50
2018-04-19T07:08:29.288Z,22.50
2018-04-19T07:09:34.864Z,22.50
2018-04-19T07:10:40.327Z,22.50
2018-04-19T07:11:45.835Z,22.50
2018-04-19T07:12:51.379Z,22.50
2018-04-19T07:13:56.864Z,22.50
2018-04-19T07:15:02.376Z,22.50
2018-04-19T07:16:07.914Z,28.13
2018-04-19T07:17:13.420Z,28.13
2018-04-19T07:18:18.924Z,28.13
2018-04-19T07:19:24.441Z,16.88
2018-04-19T07:20:29.958Z,28.13
2018-04-19T07:21:35.478Z,28.13
2018-04-19T07:22:40.989Z,28.13
2018-04-19T07:23:46.510Z,28.13
2018-04-19T07:24:52.029Z,28.13
2018-04-19T07:25:57.544Z,28.13
2018-04-19T07:27:03.060Z,28.13
2018-04-19T07:28:08.583Z,28.13
2018-04-19T07:29:14.093Z,28.13
2018-04-19T07:30:19.614Z,33.75
2018-04-19T07:31:25.123Z,33.75
2018-04-19T07:32:30.648Z,33.75
2018-04-19T07:33:36.159Z,33.75
2018-04-19T07:34:41.683Z,33.75
2018-04-19T07:35:47.190Z,33.75
2018-04-19T07:36:52.830Z,33.75
2018-04-19T07:37:58.228Z,33.75
2018-04-19T07:39:03.774Z,33.75
2018-04-19T07:40:09.259Z,33.75
2018-04-19T07:41:14.781Z,33.75
2018-04-19T07:42:20.297Z,33.75
2018-04-19T07:43:25.817Z,33.75
2018-04-19T07:44:31.327Z,33.75
2018-04-19T07:45:36.846Z,39.38
2018-04-19T07:46:42.367Z,39.38
2018-04-19T07:47:47.880Z,39.38
2018-04-19T07:48:53.406Z,39.38
2018-04-19T07:49:58.919Z,39.38
2018-04-19T07:51:04.432Z,39.38
2018-04-19T07:52:09.955Z,39.38
2018-04-19T07:53:15.470Z,39.38
2018-04-19T07:54:20.990Z,39.38
2018-04-19T07:55:26.509Z,39.38
2018-04-19T07:56:32.030Z,39.38
2018-04-19T07:57:37.538Z,39.38
2018-04-19T07:58:43.063Z,39.38
2018-04-19T07:59:48.579Z,39.38
2018-04-19T08:00:54.102Z,39.38
2018-04-19T08:01:59.663Z,39.38
2018-04-19T08:03:05.138Z,39.38
2018-04-19T08:04:12.258Z,45.00
2018-04-19T08:05:16.233Z,45.00
2018-04-19T08:06:21.686Z,45.00
2018-04-19T08:07:27.207Z,45.00
2018-04-19T08:08:32.723Z,45.00
2018-04-19T08:09:38.240Z,45.00
2018-04-19T08:10:43.759Z,45.00
2018-04-19T08:11:49.278Z,45.00
2018-04-19T08:12:54.799Z,45.00
2018-04-19T08:14:00.328Z,45.00
2018-04-19T08:15:05.842Z,45.00
2018-04-19T08:16:11.352Z,45.00
2018-04-19T08:17:16.882Z,45.00
2018-04-19T08:18:22.394Z,45.00
2018-04-19T08:19:27.913Z,45.00
2018-04-19T08:20:33.427Z,45.00
2018-04-19T08:21:38.945Z,45.00
2018-04-19T08:22:44.466Z,45.00
2018-04-19T08:23:49.982Z,45.00
2018-04-19T08:24:55.517Z,45.00
2018-04-19T08:26:01.018Z,45.00
2018-04-19T08:27:06.537Z,45.00
2018-04-19T08:28:12.057Z,45.00
2018-04-19T08:29:17.650Z,45.00
2018-04-19T08:30:23.093Z,45.00
2018-04-19T08:31:28.618Z,45.00
2018-04-19T08:32:34.188Z,45.00
2018-04-19T08:33:39.648Z,45.00
2018-04-19T08:34:45.169Z,45.00
2018-04-19T08:35:50.691Z,45.00
2018-04-19T08:36:56.207Z,45.00
2018-04-19T08:38:01.729Z,45.00
2018-04-19T08:39:07.244Z,39.38
2018-04-19T08:40:12.770Z,45.00
2018-04-19T08:41:18.298Z,45.00
2018-04-19T08:42:23.819Z,45.00
2018-04-19T08:43:29.321Z,45.00
2018-04-19T08:44:34.903Z,45.00
2018-04-19T08:45:40.361Z,45.00
2018-04-19T08:46:45.876Z,45.00
2018-04-19T08:47:51.402Z,45.00
2018-04-19T08:48:56.919Z,45.00
2018-04-19T08:50:02.443Z,50.63
2018-04-19T08:51:07.965Z,50.63
2018-04-19T08:52:13.483Z,50.63
2018-04-19T08:53:18.996Z,50.63
2018-04-19T08:54:24.517Z,50.63
2018-04-19T08:55:30.040Z,50.63
2018-04-19T08:56:35.563Z,50.63
2018-04-19T08:57:41.084Z,50.63
2018-04-19T08:58:46.596Z,50.63
2018-04-19T08:59:52.117Z,50.63
2018-04-19T09:00:57.638Z,50.63
2018-04-19T09:02:03.158Z,50.63
2018-04-19T09:03:08.673Z,50.63
2018-04-19T09:04:14.209Z,50.63
2018-04-19T09:05:19.718Z,50.63
2018-04-19T09:06:25.237Z,50.63
2018-04-19T09:07:30.751Z,50.63
2018-04-19T09:08:36.279Z,50.63
2018-04-19T09:09:41.792Z,50.63
2018-04-19T09:10:47.311Z,50.63
2018-04-19T09:11:52.833Z,50.63
2018-04-19T09:12:58.355Z,50.63
2018-04-19T09:14:03.874Z,50.63
2018-04-19T09:15:09.394Z,50.63
2018-04-19T09:16:14.914Z,50.63
2018-04-19T09:17:20.438Z,50.63
2018-04-19T09:18:25.966Z,50.63
2018-04-19T09:19:31.484Z,50.63
2018-04-19T09:20:36.998Z,50.63
2018-04-19T09:21:42.518Z,50.63
2018-04-19T09:22:48.037Z,50.63
2018-04-19T09:23:53.557Z,50.63
2018-04-19T09:24:59.086Z,50.63
2018-04-19T09:26:04.595Z,50.63
2018-04-19T09:27:10.124Z,50.63
2018-04-19T09:28:15.638Z,50.63
2018-04-19T09:29:21.186Z,50.63
2018-04-19T09:30:26.679Z,50.63
2018-04-19T09:31:32.208Z,50.63
2018-04-19T09:32:37.726Z,50.63
2018-04-19T09:33:43.248Z,50.63
2018-04-19T09:34:48.773Z,50.63
2018-04-19T09:35:54.302Z,50.63
2018-04-19T09:36:59.812Z,50.63
2018-04-19T09:38:05.334Z,50.63
2018-04-19T09:39:10.849Z,50.63
2018-04-19T09:40:16.369Z,56.25
2018-04-19T09:41:21.898Z,50.63
2018-04-19T09:42:27.409Z,50.63
2018-04-19T09:43:32.932Z,45.00
2018-04-19T09:44:38.459Z,39.38
2018-04-19T09:45:43.973Z,50.63
2018-04-19T09:46:49.499Z,50.63
2018-04-19T09:47:55.019Z,50.63
2018-04-19T09:49:00.547Z,56.25
2018-04-19T09:50:06.057Z,56.25
2018-04-19T09:51:11.581Z,56.25
2018-04-19T09:52:17.098Z,56.25
2018-04-19T09:53:22.618Z,56.25
2018-04-19T09:54:28.158Z,56.25
2018-04-19T09:55:33.666Z,56.25
2018-04-19T09:56:39.185Z,56.25
2018-04-19T09:57:44.714Z,56.25
2018-04-19T09:58:50.225Z,56.25
2018-04-19T09:59:55.747Z,50.63
2018-04-19T10:01:01.270Z,50.63
2018-04-19T10:02:06.790Z,50.63
2018-04-19T10:03:12.311Z,50.63
2018-04-19T10:04:17.837Z,50.63
2018-04-19T10:05:23.368Z,50.63
2018-04-19T10:06:28.878Z,50.63
2018-04-19T10:07:34.400Z,50.63
2018-04-19T10:08:39.920Z,50.63
2018-04-19T10:09:45.442Z,50.63
2018-04-19T10:10:50.977Z,50.63
2018-04-19T10:11:56.496Z,50.63
2018-04-19T10:13:02.015Z,50.63
2018-04-19T10:14:07.535Z,50.63
2018-04-19T10:15:13.049Z,50.63
2018-04-19T10:16:18.572Z,56.25
2018-04-19T10:17:24.102Z,56.25
2018-04-19T10:18:29.618Z,56.25
2018-04-19T10:19:35.142Z,56.25
2018-04-19T10:20:40.659Z,56.25
2018-04-19T10:21:46.196Z,56.25
2018-04-19T10:22:51.706Z,56.25
2018-04-19T10:23:57.237Z,56.25
2018-04-19T10:25:02.751Z,56.25
2018-04-19T10:26:08.271Z,56.25
2018-04-19T10:27:13.792Z,56.25
2018-04-19T10:28:19.320Z,56.25
2018-04-19T10:29:24.843Z,50.63
2018-04-19T10:30:30.359Z,50.63
2018-04-19T10:31:35.880Z,56.25
2018-04-19T10:32:41.405Z,56.25
2018-04-19T10:33:46.948Z,50.63
2018-04-19T10:34:52.457Z,56.25
2018-04-19T10:35:57.972Z,61.88
2018-04-19T10:37:03.496Z,61.88
2018-04-19T10:38:09.020Z,61.88
2018-04-19T10:39:14.543Z,61.88
2018-04-19T10:40:20.080Z,61.88
2018-04-19T10:41:25.586Z,61.88
2018-04-19T10:42:31.107Z,61.88
2018-04-19T10:43:36.629Z,61.88
2018-04-19T10:44:42.163Z,61.88
2018-04-19T10:45:47.673Z,61.88
2018-04-19T10:46:53.197Z,61.88
2018-04-19T10:47:58.719Z,61.88
2018-04-19T10:49:04.245Z,61.88
2018-04-19T10:50:09.765Z,61.88
2018-04-19T10:51:15.289Z,61.88
2018-04-19T10:52:20.814Z,61.88
2018-04-19T10:53:26.334Z,61.88
2018-04-19T10:54:31.861Z,61.88
2018-04-19T10:55:37.386Z,61.88
2018-04-19T10:56:42.911Z,61.88
2018-04-19T10:57:48.438Z,61.88
2018-04-19T10:58:53.953Z,61.88
2018-04-19T10:59:59.474Z,61.88
2018-04-19T11:01:05.000Z,61.88
2018-04-19T11:02:10.521Z,61.88
2018-04-19T11:03:16.043Z,61.88
2018-04-19T11:04:21.578Z,61.88
2018-04-19T11:05:27.108Z,61.88
2018-04-19T11:06:32.629Z,61.88
2018-04-19T11:07:38.136Z,61.88
2018-04-19T11:08:43.657Z,50.63
2018-04-19T11:09:49.182Z,61.88
2018-04-19T11:10:54.709Z,67.50
2018-04-19T11:12:00.227Z,67.50
2018-04-19T11:13:05.759Z,61.88
2018-04-19T11:14:11.285Z,67.50
2018-04-19T11:15:16.797Z,67.50
2018-04-19T11:16:22.322Z,67.50
2018-04-19T11:17:27.862Z,67.50
2018-04-19T11:18:33.567Z,73.13
2018-04-19T11:19:38.899Z,67.50
2018-04-19T11:20:44.421Z,67.50
2018-04-19T11:21:49.948Z,67.50
2018-04-19T11:22:55.475Z,67.50
2018-04-19T11:24:00.987Z,67.50
2018-04-19T11:25:06.525Z,67.50
2018-04-19T11:26:12.037Z,67.50
2018-04-19T11:27:17.558Z,67.50
2018-04-19T11:28:23.091Z,67.50
2018-04-19T11:29:28.604Z,67.50
2018-04-19T11:30:34.129Z,67.50
2018-04-19T11:31:39.671Z,67.50
2018-04-19T11:32:45.185Z,67.50
2018-04-19T11:33:50.705Z,67.50
2018-04-19T11:34:56.226Z,67.50
2018-04-19T11:36:01.750Z,67.50
2018-04-19T11:37:07.277Z,73.13
2018-04-19T11:38:12.796Z,67.50
2018-04-19T11:39:18.318Z,67.50
2018-04-19T11:40:23.845Z,67.50
2018-04-19T11:41:29.378Z,67.50
2018-04-19T11:42:34.937Z,67.50
2018-04-19T11:43:40.426Z,67.50
2018-04-19T11:44:45.939Z,67.50
2018-04-19T11:45:51.474Z,67.50
2018-04-19T11:46:56.989Z,73.13
2018-04-19T11:48:02.532Z,73.13
2018-04-19T11:49:08.036Z,73.13
2018-04-19T11:50:13.562Z,73.13
2018-04-19T11:51:19.088Z,73.13
2018-04-19T11:52:24.614Z,73.13
2018-04-19T11:53:30.140Z,73.13
2018-04-19T11:54:35.663Z,73.13
2018-04-19T11:55:41.199Z,73.13
2018-04-19T11:56:46.713Z,73.13
2018-04-19T11:57:52.244Z,73.13
2018-04-19T11:58:57.759Z,73.13
2018-04-19T12:00:03.289Z,73.13
2018-04-19T12:01:08.883Z,73.13
2018-04-19T12:02:14.354Z,73.13
2018-04-19T12:03:19.880Z,73.13
2018-04-19T12:04:25.379Z,73.13
2018-04-19T12:05:30.915Z,73.13
2018-04-19T12:06:36.427Z,73.13
2018-04-19T12:07:41.957Z,73.13
2018-04-19T12:08:47.481Z,73.13
2018-04-19T12:09:53.003Z,73.13
2018-04-19T12:10:58.544Z,73.13
2018-04-19T12:12:04.054Z,73.13
2018-04-19T12:13:09.589Z,73.13
2018-04-19T12:14:15.110Z,73.13
2018-04-19T12:15:20.630Z,73.13
2018-04-19T12:16:26.157Z,73.13
2018-04-19T12:17:31.677Z,73.13
2018-04-19T12:18:37.210Z,73.13
2018-04-19T12:19:42.733Z,73.13
2018-04-19T12:20:48.251Z,73.13
2018-04-19T12:21:53.784Z,73.13
2018-04-19T12:22:59.358Z,73.13
2018-04-19T12:24:04.826Z,73.13
2018-04-19T12:25:10.362Z,73.13
2018-04-19T12:26:15.881Z,73.13
2018-04-19T12:27:21.409Z,73.13
2018-04-19T12:28:26.921Z,73.13
2018-04-19T12:29:32.458Z,78.75
2018-04-19T12:30:37.985Z,73.13
2018-04-19T12:31:43.500Z,73.13
2018-04-19T12:32:49.043Z,73.13
2018-04-19T12:33:54.566Z,73.13
2018-04-19T12:35:00.079Z,73.13
2018-04-19T12:36:05.617Z,73.13
2018-04-19T12:37:11.135Z,73.13
2018-04-19T12:38:16.654Z,73.13
2018-04-19T12:39:22.173Z,73.13
2018-04-19T12:40:27.704Z,73.13
2018-04-19T12:41:33.227Z,73.13
2018-04-19T12:42:38.760Z,73.13
2018-04-19T12:43:44.274Z,67.50
2018-04-19T12:44:49.812Z,73.13
2018-04-19T12:45:55.328Z,67.50
2018-04-19T12:47:00.853Z,67.50
2018-04-19T12:48:06.379Z,67.50
2018-04-19T12:49:11.902Z,67.50
2018-04-19T12:50:17.428Z,67.50
2018-04-19T12:51:22.956Z,67.50
2018-04-19T12:52:28.480Z,67.50
2018-04-19T12:53:34.013Z,67.50
2018-04-19T12:54:39.529Z,67.50
2018-04-19T12:55:45.054Z,67.50
2018-04-19T12:56:50.587Z,67.50
2018-04-19T12:57:56.116Z,67.50
2018-04-19T12:59:01.631Z,67.50
2018-04-19T13:00:07.174Z,67.50
2018-04-19T13:01:12.678Z,67.50
2018-04-19T13:02:18.205Z,67.50
2018-04-19T13:03:23.736Z,67.50
2018-04-19T13:04:29.266Z,67.50
2018-04-19T13:05:34.784Z,67.50
2018-04-19T13:06:40.308Z,67.50
2018-04-19T13:07:45.829Z,67.50
2018-04-19T13:08:51.364Z,67.50
2018-04-19T13:09:56.896Z,67.50
2018-04-19T13:11:02.412Z,67.50
2018-04-19T13:12:07.932Z,73.13
2018-04-19T13:13:13.459Z,39.38
2018-04-19T13:14:18.982Z,73.13
2018-04-19T13:15:24.511Z,73.13
2018-04-19T13:16:30.033Z,67.50
2018-04-19T13:17:35.568Z,73.13
2018-04-19T13:18:41.090Z,73.13
2018-04-19T13:19:46.609Z,73.13
2018-04-19T13:20:52.146Z,67.50
2018-04-19T13:21:57.705Z,67.50
2018-04-19T13:23:03.191Z,67.50
2018-04-19T13:24:08.722Z,67.50
2018-04-19T13:25:14.247Z,67.50
2018-04-19T13:26:19.768Z,67.50
2018-04-19T13:27:25.287Z,67.50
2018-04-19T13:28:30.825Z,67.50
2018-04-19T13:29:36.340Z,67.50
2018-04-19T13:30:41.866Z,67.50
2018-04-19T13:31:47.404Z,67.50
2018-04-19T13:32:52.919Z,50.63
2018-04-19T13:33:58.445Z,50.63
2018-04-19T13:35:03.965Z,50.63
2018-04-19T13:36:09.502Z,50.63
2018-04-19T13:37:15.016Z,50.63
2018-04-19T13:38:20.546Z,50.63
2018-04-19T13:39:26.069Z,50.63
2018-04-19T13:40:31.598Z,50.63
2018-04-19T13:41:37.119Z,50.63
2018-04-19T13:42:42.655Z,50.63
2018-04-19T13:43:48.177Z,45.00
2018-04-19T13:44:53.700Z,45.00
2018-04-19T13:45:59.225Z,45.00
2018-04-19T13:47:04.747Z,45.00
2018-04-19T13:48:10.276Z,45.00
2018-04-19T13:49:15.805Z,45.00
2018-04-19T13:50:21.323Z,45.00
2018-04-19T13:51:26.845Z,50.63
2018-04-19T13:52:32.374Z,45.00
2018-04-19T13:53:37.898Z,50.63
2018-04-19T13:54:43.427Z,45.00
2018-04-19T13:55:48.966Z,45.00
2018-04-19T13:56:54.479Z,45.00
2018-04-19T13:58:00.002Z,45.00
2018-04-19T13:59:05.536Z,45.00
2018-04-19T14:00:11.055Z,39.38
2018-04-19T14:01:16.578Z,39.38
2018-04-19T14:02:22.103Z,39.38
2018-04-19T14:03:27.631Z,39.38
2018-04-19T14:04:33.160Z,39.38
2018-04-19T14:05:38.682Z,39.38
2018-04-19T14:06:44.203Z,39.38
2018-04-19T14:07:49.736Z,39.38
2018-04-19T14:08:55.259Z,39.38
2018-04-19T14:10:00.790Z,39.38
2018-04-19T14:11:06.305Z,39.38
2018-04-19T14:12:11.830Z,39.38
2018-04-19T14:13:17.409Z,39.38